sensor_id;sensor_type;location;lat;lon;timestamp;P1;durP1;ratioP1;P2;durP2;ratioP2
2840;SDS011;53423;49.224;12.074;2022-09-09T00:00:05;2.77;;;2.53;;
2840;SDS011;53423;49.224;12.074;2022-09-09T00:02:39;2.83;;;2.10;;
2840;SDS011;53423;49.224;12.074;2022-09-09T00:05:14;3.90;;;2.37;;
2840;SDS011;53423;49.224;12.074;2022-09-09T00:07:53;2.70;;;2.07;;
2840;SDS011;53423;49.224;12.074;2022-09-09T00:10:25;4.70;;;2.53;;
2840;SDS011;53423;49.224;12.074;2022-09-09T00:13:00;2.13;;;2.03;;
2840;SDS011;53423;49.224;12.074;2022-09-09T00:15:34;4.77;;;2.53;;
2840;SDS011;53423;49.224;12.074;2022-09-09T00:18:11;2.60;;;2.33;;
2840;SDS011;53423;49.224;12.074;2022-09-09T00:20:47;3.80;;;2.53;;
2840;SDS011;53423;49.224;12.074;2022-09-09T00:23:22;3.73;;;2.60;;
2840;SDS011;53423;49.224;12.074;2022-09-09T00:25:54;3.57;;;2.60;;
2840;SDS011;53423;49.224;12.074;2022-09-09T00:28:32;3.50;;;2.70;;
2840;SDS011;53423;49.224;12.074;2022-09-09T00:31:08;2.93;;;2.27;;
2840;SDS011;53423;49.224;12.074;2022-09-09T00:33:40;4.97;;;2.90;;
2840;SDS011;53423;49.224;12.074;2022-09-09T00:36:09;5.13;;;2.97;;
2840;SDS011;53423;49.224;12.074;2022-09-09T00:38:42;4.00;;;3.03;;
2840;SDS011;53423;49.224;12.074;2022-09-09T00:41:14;4.77;;;2.87;;
2840;SDS011;53423;49.224;12.074;2022-09-09T00:43:52;4.37;;;2.70;;
2840;SDS011;53423;49.224;12.074;2022-09-09T00:49:23;3.53;;;2.70;;
2840;SDS011;53423;49.224;12.074;2022-09-09T00:52:08;5.53;;;2.93;;
2840;SDS011;53423;49.224;12.074;2022-09-09T00:54:49;3.53;;;2.70;;
2840;SDS011;53423;49.224;12.074;2022-09-09T00:57:25;3.33;;;2.77;;
2840;SDS011;53423;49.224;12.074;2022-09-09T00:59:58;4.47;;;2.97;;
2840;SDS011;53423;49.224;12.074;2022-09-09T01:02:44;3.13;;;2.30;;
2840;SDS011;53423;49.224;12.074;2022-09-09T01:05:20;4.20;;;2.50;;
2840;SDS011;53423;49.224;12.074;2022-09-09T01:07:54;4.67;;;2.47;;
2840;SDS011;53423;49.224;12.074;2022-09-09T01:10:26;2.80;;;2.23;;
2840;SDS011;53423;49.224;12.074;2022-09-09T01:12:59;3.73;;;2.23;;
2840;SDS011;53423;49.224;12.074;2022-09-09T01:15:34;5.00;;;3.20;;
2840;SDS011;53423;49.224;12.074;2022-09-09T01:18:04;4.10;;;2.73;;
2840;SDS011;53423;49.224;12.074;2022-09-09T01:20:37;6.67;;;3.07;;
2840;SDS011;53423;49.224;12.074;2022-09-09T01:23:17;9.47;;;3.33;;
2840;SDS011;53423;49.224;12.074;2022-09-09T01:26:18;6.60;;;2.47;;
2840;SDS011;53423;49.224;12.074;2022-09-09T01:28:51;7.73;;;3.00;;
2840;SDS011;53423;49.224;12.074;2022-09-09T01:31:20;8.50;;;2.60;;
2840;SDS011;53423;49.224;12.074;2022-09-09T01:33:50;5.53;;;3.10;;
2840;SDS011;53423;49.224;12.074;2022-09-09T01:36:20;7.03;;;3.03;;
2840;SDS011;53423;49.224;12.074;2022-09-09T01:38:53;4.50;;;2.83;;
2840;SDS011;53423;49.224;12.074;2022-09-09T01:41:23;5.63;;;2.70;;
2840;SDS011;53423;49.224;12.074;2022-09-09T01:43:52;4.07;;;2.90;;
2840;SDS011;53423;49.224;12.074;2022-09-09T01:46:20;3.63;;;2.83;;
2840;SDS011;53423;49.224;12.074;2022-09-09T01:48:50;4.33;;;2.87;;
2840;SDS011;53423;49.224;12.074;2022-09-09T01:51:20;3.50;;;2.50;;
2840;SDS011;53423;49.224;12.074;2022-09-09T01:53:48;5.57;;;2.80;;
2840;SDS011;53423;49.224;12.074;2022-09-09T01:56:24;4.43;;;3.40;;
2840;SDS011;53423;49.224;12.074;2022-09-09T01:59:04;7.07;;;3.53;;
2840;SDS011;53423;49.224;12.074;2022-09-09T02:01:45;6.40;;;3.70;;
2840;SDS011;53423;49.224;12.074;2022-09-09T02:04:27;5.20;;;3.27;;
2840;SDS011;53423;49.224;12.074;2022-09-09T02:07:05;4.53;;;3.03;;
2840;SDS011;53423;49.224;12.074;2022-09-09T02:09:40;5.37;;;3.07;;
2840;SDS011;53423;49.224;12.074;2022-09-09T02:12:13;6.87;;;3.60;;
2840;SDS011;53423;49.224;12.074;2022-09-09T02:14:46;4.03;;;3.10;;
2840;SDS011;53423;49.224;12.074;2022-09-09T02:17:21;7.37;;;3.77;;
2840;SDS011;53423;49.224;12.074;2022-09-09T02:19:54;4.83;;;3.43;;
2840;SDS011;53423;49.224;12.074;2022-09-09T02:22:28;3.73;;;3.30;;
2840;SDS011;53423;49.224;12.074;2022-09-09T02:24:58;4.03;;;3.23;;
2840;SDS011;53423;49.224;12.074;2022-09-09T02:27:29;5.43;;;3.47;;
2840;SDS011;53423;49.224;12.074;2022-09-09T02:29:57;4.63;;;3.23;;
2840;SDS011;53423;49.224;12.074;2022-09-09T02:32:28;4.70;;;3.43;;
2840;SDS011;53423;49.224;12.074;2022-09-09T02:35:00;4.70;;;3.20;;
2840;SDS011;53423;49.224;12.074;2022-09-09T02:37:34;8.07;;;3.90;;
2840;SDS011;53423;49.224;12.074;2022-09-09T02:40:05;6.83;;;3.67;;
2840;SDS011;53423;49.224;12.074;2022-09-09T02:42:39;7.63;;;4.10;;
2840;SDS011;53423;49.224;12.074;2022-09-09T02:45:08;4.23;;;3.57;;
2840;SDS011;53423;49.224;12.074;2022-09-09T02:47:38;4.07;;;3.67;;
2840;SDS011;53423;49.224;12.074;2022-09-09T02:50:13;5.63;;;3.70;;
2840;SDS011;53423;49.224;12.074;2022-09-09T02:52:47;4.30;;;3.43;;
2840;SDS011;53423;49.224;12.074;2022-09-09T02:55:29;6.03;;;3.53;;
2840;SDS011;53423;49.224;12.074;2022-09-09T02:58:07;4.30;;;3.40;;
2840;SDS011;53423;49.224;12.074;2022-09-09T03:00:38;5.43;;;4.10;;
2840;SDS011;53423;49.224;12.074;2022-09-09T03:03:07;3.73;;;3.43;;
2840;SDS011;53423;49.224;12.074;2022-09-09T03:05:36;5.60;;;3.87;;
2840;SDS011;53423;49.224;12.074;2022-09-09T03:08:04;5.67;;;3.80;;
2840;SDS011;53423;49.224;12.074;2022-09-09T03:10:33;4.00;;;3.60;;
2840;SDS011;53423;49.224;12.074;2022-09-09T03:13:01;5.73;;;3.93;;
2840;SDS011;53423;49.224;12.074;2022-09-09T03:15:31;5.07;;;3.93;;
2840;SDS011;53423;49.224;12.074;2022-09-09T03:17:59;5.17;;;3.67;;
2840;SDS011;53423;49.224;12.074;2022-09-09T03:20:28;5.50;;;3.83;;
2840;SDS011;53423;49.224;12.074;2022-09-09T03:22:57;4.90;;;3.97;;
2840;SDS011;53423;49.224;12.074;2022-09-09T03:25:26;6.47;;;4.20;;
2840;SDS011;53423;49.224;12.074;2022-09-09T03:27:54;5.43;;;4.37;;
2840;SDS011;53423;49.224;12.074;2022-09-09T03:30:23;5.37;;;4.87;;
2840;SDS011;53423;49.224;12.074;2022-09-09T03:32:55;5.80;;;5.20;;
2840;SDS011;53423;49.224;12.074;2022-09-09T03:35:23;4.87;;;4.47;;
2840;SDS011;53423;49.224;12.074;2022-09-09T03:37:51;5.33;;;4.77;;
2840;SDS011;53423;49.224;12.074;2022-09-09T03:40:19;6.60;;;6.00;;
2840;SDS011;53423;49.224;12.074;2022-09-09T03:42:47;7.50;;;6.37;;
2840;SDS011;53423;49.224;12.074;2022-09-09T03:45:15;7.27;;;6.53;;
2840;SDS011;53423;49.224;12.074;2022-09-09T03:47:43;6.37;;;5.87;;
2840;SDS011;53423;49.224;12.074;2022-09-09T03:50:12;8.20;;;7.40;;
2840;SDS011;53423;49.224;12.074;2022-09-09T03:52:40;8.90;;;8.10;;
2840;SDS011;53423;49.224;12.074;2022-09-09T03:55:08;10.40;;;9.60;;
2840;SDS011;53423;49.224;12.074;2022-09-09T03:57:36;10.33;;;9.43;;
2840;SDS011;53423;49.224;12.074;2022-09-09T04:00:05;11.03;;;10.03;;
2840;SDS011;53423;49.224;12.074;2022-09-09T04:02:34;11.73;;;10.70;;
2840;SDS011;53423;49.224;12.074;2022-09-09T04:05:02;12.83;;;11.60;;
2840;SDS011;53423;49.224;12.074;2022-09-09T04:07:34;13.37;;;12.27;;
2840;SDS011;53423;49.224;12.074;2022-09-09T04:10:02;13.07;;;11.77;;
2840;SDS011;53423;49.224;12.074;2022-09-09T04:12:30;13.10;;;11.80;;
2840;SDS011;53423;49.224;12.074;2022-09-09T04:14:58;11.17;;;10.17;;
2840;SDS011;53423;49.224;12.074;2022-09-09T04:17:30;10.97;;;10.07;;
2840;SDS011;53423;49.224;12.074;2022-09-09T04:19:59;11.77;;;10.83;;
2840;SDS011;53423;49.224;12.074;2022-09-09T04:22:27;10.77;;;9.77;;
2840;SDS011;53423;49.224;12.074;2022-09-09T04:24:56;10.07;;;9.27;;
2840;SDS011;53423;49.224;12.074;2022-09-09T04:27:24;10.37;;;9.57;;
2840;SDS011;53423;49.224;12.074;2022-09-09T04:29:52;10.80;;;9.80;;
2840;SDS011;53423;49.224;12.074;2022-09-09T04:32:21;10.30;;;9.50;;
2840;SDS011;53423;49.224;12.074;2022-09-09T04:34:49;10.77;;;9.87;;
2840;SDS011;53423;49.224;12.074;2022-09-09T04:37:17;9.70;;;9.00;;
2840;SDS011;53423;49.224;12.074;2022-09-09T04:39:45;10.70;;;9.83;;
2840;SDS011;53423;49.224;12.074;2022-09-09T04:42:14;10.10;;;9.20;;
2840;SDS011;53423;49.224;12.074;2022-09-09T04:44:42;10.03;;;9.13;;
2840;SDS011;53423;49.224;12.074;2022-09-09T04:47:10;11.13;;;10.20;;
2840;SDS011;53423;49.224;12.074;2022-09-09T04:49:40;11.20;;;10.20;;
2840;SDS011;53423;49.224;12.074;2022-09-09T04:52:08;12.03;;;11.03;;
2840;SDS011;53423;49.224;12.074;2022-09-09T04:54:36;11.77;;;10.77;;
2840;SDS011;53423;49.224;12.074;2022-09-09T04:57:05;12.03;;;11.03;;
2840;SDS011;53423;49.224;12.074;2022-09-09T04:59:34;12.27;;;11.07;;
2840;SDS011;53423;49.224;12.074;2022-09-09T05:02:02;12.47;;;11.47;;
2840;SDS011;53423;49.224;12.074;2022-09-09T05:04:31;12.90;;;12.00;;
2840;SDS011;53423;49.224;12.074;2022-09-09T05:06:59;12.80;;;11.90;;
2840;SDS011;53423;49.224;12.074;2022-09-09T05:09:27;13.33;;;12.13;;
2840;SDS011;53423;49.224;12.074;2022-09-09T05:11:55;13.20;;;12.10;;
2840;SDS011;53423;49.224;12.074;2022-09-09T05:14:24;14.40;;;13.20;;
2840;SDS011;53423;49.224;12.074;2022-09-09T05:16:54;14.83;;;13.67;;
2840;SDS011;53423;49.224;12.074;2022-09-09T05:19:22;14.57;;;13.37;;
2840;SDS011;53423;49.224;12.074;2022-09-09T05:21:50;13.20;;;12.10;;
2840;SDS011;53423;49.224;12.074;2022-09-09T05:24:18;13.40;;;12.30;;
2840;SDS011;53423;49.224;12.074;2022-09-09T05:26:46;13.63;;;12.40;;
2840;SDS011;53423;49.224;12.074;2022-09-09T05:29:14;14.70;;;13.50;;
2840;SDS011;53423;49.224;12.074;2022-09-09T05:31:43;14.23;;;13.13;;
2840;SDS011;53423;49.224;12.074;2022-09-09T05:34:12;14.77;;;13.33;;
2840;SDS011;53423;49.224;12.074;2022-09-09T05:36:40;13.53;;;12.43;;
2840;SDS011;53423;49.224;12.074;2022-09-09T05:39:08;14.80;;;13.57;;
2840;SDS011;53423;49.224;12.074;2022-09-09T05:41:38;14.23;;;13.13;;
2840;SDS011;53423;49.224;12.074;2022-09-09T05:44:06;15.10;;;13.63;;
2840;SDS011;53423;49.224;12.074;2022-09-09T05:46:34;14.70;;;13.33;;
2840;SDS011;53423;49.224;12.074;2022-09-09T05:49:02;15.50;;;14.20;;
2840;SDS011;53423;49.224;12.074;2022-09-09T05:51:33;15.13;;;13.83;;
2840;SDS011;53423;49.224;12.074;2022-09-09T05:54:01;14.67;;;13.37;;
2840;SDS011;53423;49.224;12.074;2022-09-09T05:56:29;14.07;;;12.87;;
2840;SDS011;53423;49.224;12.074;2022-09-09T05:58:58;14.67;;;13.47;;
2840;SDS011;53423;49.224;12.074;2022-09-09T06:01:28;14.83;;;13.50;;
2840;SDS011;53423;49.224;12.074;2022-09-09T06:03:58;13.70;;;12.50;;
2840;SDS011;53423;49.224;12.074;2022-09-09T06:06:27;13.27;;;12.27;;
2840;SDS011;53423;49.224;12.074;2022-09-09T06:08:59;14.37;;;13.17;;
2840;SDS011;53423;49.224;12.074;2022-09-09T06:11:28;14.13;;;12.70;;
2840;SDS011;53423;49.224;12.074;2022-09-09T06:13:57;14.13;;;12.73;;
2840;SDS011;53423;49.224;12.074;2022-09-09T06:16:26;13.13;;;12.13;;
2840;SDS011;53423;49.224;12.074;2022-09-09T06:18:56;13.10;;;11.87;;
2840;SDS011;53423;49.224;12.074;2022-09-09T06:21:25;13.00;;;11.90;;
2840;SDS011;53423;49.224;12.074;2022-09-09T06:23:54;12.60;;;11.60;;
2840;SDS011;53423;49.224;12.074;2022-09-09T06:26:28;13.00;;;11.80;;
2840;SDS011;53423;49.224;12.074;2022-09-09T06:28:58;13.60;;;12.20;;
2840;SDS011;53423;49.224;12.074;2022-09-09T06:31:28;13.57;;;12.37;;
2840;SDS011;53423;49.224;12.074;2022-09-09T06:33:58;12.63;;;11.40;;
2840;SDS011;53423;49.224;12.074;2022-09-09T06:36:27;12.43;;;11.33;;
2840;SDS011;53423;49.224;12.074;2022-09-09T06:38:56;12.90;;;11.90;;
2840;SDS011;53423;49.224;12.074;2022-09-09T06:41:25;12.03;;;11.00;;
2840;SDS011;53423;49.224;12.074;2022-09-09T06:43:56;11.77;;;10.70;;
2840;SDS011;53423;49.224;12.074;2022-09-09T06:46:24;11.00;;;10.20;;
2840;SDS011;53423;49.224;12.074;2022-09-09T06:48:54;11.10;;;10.27;;
2840;SDS011;53423;49.224;12.074;2022-09-09T06:51:26;10.53;;;9.63;;
2840;SDS011;53423;49.224;12.074;2022-09-09T06:53:56;9.47;;;8.73;;
2840;SDS011;53423;49.224;12.074;2022-09-09T06:56:25;9.80;;;9.00;;
2840;SDS011;53423;49.224;12.074;2022-09-09T06:58:56;9.60;;;8.90;;
2840;SDS011;53423;49.224;12.074;2022-09-09T07:01:27;8.90;;;8.20;;
2840;SDS011;53423;49.224;12.074;2022-09-09T07:03:57;8.67;;;7.87;;
2840;SDS011;53423;49.224;12.074;2022-09-09T07:06:26;8.30;;;7.60;;
2840;SDS011;53423;49.224;12.074;2022-09-09T07:08:56;7.23;;;6.63;;
2840;SDS011;53423;49.224;12.074;2022-09-09T07:11:26;7.53;;;6.63;;
2840;SDS011;53423;49.224;12.074;2022-09-09T07:13:56;7.07;;;6.43;;
2840;SDS011;53423;49.224;12.074;2022-09-09T07:16:26;6.60;;;6.10;;
2840;SDS011;53423;49.224;12.074;2022-09-09T07:18:55;6.27;;;5.77;;
2840;SDS011;53423;49.224;12.074;2022-09-09T07:21:25;6.73;;;6.23;;
2840;SDS011;53423;49.224;12.074;2022-09-09T07:23:54;6.40;;;5.90;;
2840;SDS011;53423;49.224;12.074;2022-09-09T07:26:22;6.87;;;6.30;;
2840;SDS011;53423;49.224;12.074;2022-09-09T07:28:52;6.33;;;5.83;;
2840;SDS011;53423;49.224;12.074;2022-09-09T07:31:23;6.60;;;6.10;;
2840;SDS011;53423;49.224;12.074;2022-09-09T07:33:53;6.27;;;5.77;;
2840;SDS011;53423;49.224;12.074;2022-09-09T07:36:22;6.77;;;6.17;;
2840;SDS011;53423;49.224;12.074;2022-09-09T07:38:58;6.90;;;6.20;;
2840;SDS011;53423;49.224;12.074;2022-09-09T07:41:29;6.77;;;6.07;;
2840;SDS011;53423;49.224;12.074;2022-09-09T07:44:03;6.23;;;5.63;;
2840;SDS011;53423;49.224;12.074;2022-09-09T07:46:34;6.30;;;5.70;;
2840;SDS011;53423;49.224;12.074;2022-09-09T07:49:03;6.70;;;6.03;;
2840;SDS011;53423;49.224;12.074;2022-09-09T07:51:32;7.50;;;6.17;;
2840;SDS011;53423;49.224;12.074;2022-09-09T07:54:02;7.00;;;6.50;;
2840;SDS011;53423;49.224;12.074;2022-09-09T07:56:32;7.53;;;6.93;;
2840;SDS011;53423;49.224;12.074;2022-09-09T07:59:00;8.00;;;7.30;;
2840;SDS011;53423;49.224;12.074;2022-09-09T08:01:31;7.77;;;7.10;;
2840;SDS011;53423;49.224;12.074;2022-09-09T08:04:04;8.83;;;8.13;;
2840;SDS011;53423;49.224;12.074;2022-09-09T08:06:35;9.17;;;8.47;;
2840;SDS011;53423;49.224;12.074;2022-09-09T08:09:05;9.03;;;8.23;;
2840;SDS011;53423;49.224;12.074;2022-09-09T08:11:34;9.77;;;8.87;;
2840;SDS011;53423;49.224;12.074;2022-09-09T08:14:04;10.77;;;9.97;;
2840;SDS011;53423;49.224;12.074;2022-09-09T08:16:34;9.87;;;9.07;;
2840;SDS011;53423;49.224;12.074;2022-09-09T08:19:06;9.80;;;9.00;;
2840;SDS011;53423;49.224;12.074;2022-09-09T08:21:35;7.87;;;7.27;;
2840;SDS011;53423;49.224;12.074;2022-09-09T08:24:05;8.03;;;7.33;;
2840;SDS011;53423;49.224;12.074;2022-09-09T08:26:35;8.23;;;7.37;;
2840;SDS011;53423;49.224;12.074;2022-09-09T08:29:05;8.27;;;7.47;;
2840;SDS011;53423;49.224;12.074;2022-09-09T08:31:34;9.23;;;7.17;;
2840;SDS011;53423;49.224;12.074;2022-09-09T08:34:06;7.03;;;6.43;;
2840;SDS011;53423;49.224;12.074;2022-09-09T08:36:36;6.93;;;6.23;;
2840;SDS011;53423;49.224;12.074;2022-09-09T08:39:05;6.57;;;5.97;;
2840;SDS011;53423;49.224;12.074;2022-09-09T08:41:38;7.23;;;5.70;;
2840;SDS011;53423;49.224;12.074;2022-09-09T08:44:14;7.80;;;5.57;;
2840;SDS011;53423;49.224;12.074;2022-09-09T08:46:51;5.80;;;5.30;;
2840;SDS011;53423;49.224;12.074;2022-09-09T08:49:35;6.03;;;5.53;;
2840;SDS011;53423;49.224;12.074;2022-09-09T08:52:17;5.93;;;5.43;;
2840;SDS011;53423;49.224;12.074;2022-09-09T08:54:49;6.63;;;5.93;;
2840;SDS011;53423;49.224;12.074;2022-09-09T08:57:19;6.77;;;5.67;;
2840;SDS011;53423;49.224;12.074;2022-09-09T08:59:53;5.73;;;5.20;;
2840;SDS011;53423;49.224;12.074;2022-09-09T09:02:25;5.50;;;5.00;;
2840;SDS011;53423;49.224;12.074;2022-09-09T09:05:08;4.53;;;4.23;;
2840;SDS011;53423;49.224;12.074;2022-09-09T09:07:50;4.93;;;4.53;;
2840;SDS011;53423;49.224;12.074;2022-09-09T09:10:33;4.97;;;4.47;;
2840;SDS011;53423;49.224;12.074;2022-09-09T09:13:12;4.60;;;4.07;;
2840;SDS011;53423;49.224;12.074;2022-09-09T09:15:46;4.80;;;3.83;;
2840;SDS011;53423;49.224;12.074;2022-09-09T09:18:18;4.23;;;3.83;;
2840;SDS011;53423;49.224;12.074;2022-09-09T09:20:53;5.03;;;4.07;;
2840;SDS011;53423;49.224;12.074;2022-09-09T09:23:29;5.10;;;3.60;;
2840;SDS011;53423;49.224;12.074;2022-09-09T09:26:05;4.17;;;3.77;;
2840;SDS011;53423;49.224;12.074;2022-09-09T09:28:37;4.23;;;3.87;;
2840;SDS011;53423;49.224;12.074;2022-09-09T09:31:10;3.57;;;3.27;;
2840;SDS011;53423;49.224;12.074;2022-09-09T09:33:43;5.20;;;3.70;;
2840;SDS011;53423;49.224;12.074;2022-09-09T09:36:17;3.97;;;3.30;;
2840;SDS011;53423;49.224;12.074;2022-09-09T09:38:52;3.30;;;2.80;;
2840;SDS011;53423;49.224;12.074;2022-09-09T09:41:42;2.97;;;2.77;;
2840;SDS011;53423;49.224;12.074;2022-09-09T09:44:21;3.30;;;3.00;;
2840;SDS011;53423;49.224;12.074;2022-09-09T09:46:51;3.40;;;2.70;;
2840;SDS011;53423;49.224;12.074;2022-09-09T09:49:19;2.43;;;2.20;;
2840;SDS011;53423;49.224;12.074;2022-09-09T09:51:49;4.27;;;2.63;;
2840;SDS011;53423;49.224;12.074;2022-09-09T09:54:21;2.90;;;2.70;;
2840;SDS011;53423;49.224;12.074;2022-09-09T09:56:53;2.70;;;2.50;;
2840;SDS011;53423;49.224;12.074;2022-09-09T09:59:23;2.37;;;2.03;;
2840;SDS011;53423;49.224;12.074;2022-09-09T10:02:14;2.53;;;2.23;;
2840;SDS011;53423;49.224;12.074;2022-09-09T10:04:44;2.47;;;1.90;;
2840;SDS011;53423;49.224;12.074;2022-09-09T10:07:17;2.17;;;1.60;;
2840;SDS011;53423;49.224;12.074;2022-09-09T10:09:46;2.33;;;1.63;;
2840;SDS011;53423;49.224;12.074;2022-09-09T10:12:21;2.17;;;1.90;;
2840;SDS011;53423;49.224;12.074;2022-09-09T10:15:00;4.30;;;2.47;;
2840;SDS011;53423;49.224;12.074;2022-09-09T10:17:35;2.33;;;1.80;;
2840;SDS011;53423;49.224;12.074;2022-09-09T10:20:15;3.90;;;2.07;;
2840;SDS011;53423;49.224;12.074;2022-09-09T10:22:52;2.40;;;2.20;;
2840;SDS011;53423;49.224;12.074;2022-09-09T10:25:35;3.07;;;2.20;;
2840;SDS011;53423;49.224;12.074;2022-09-09T10:28:30;4.13;;;2.30;;
2840;SDS011;53423;49.224;12.074;2022-09-09T10:31:12;3.53;;;2.07;;
2840;SDS011;53423;49.224;12.074;2022-09-09T10:33:50;2.30;;;2.20;;
2840;SDS011;53423;49.224;12.074;2022-09-09T10:36:25;1.87;;;1.77;;
2840;SDS011;53423;49.224;12.074;2022-09-09T10:38:57;3.70;;;2.03;;
2840;SDS011;53423;49.224;12.074;2022-09-09T10:41:35;2.63;;;1.90;;
2840;SDS011;53423;49.224;12.074;2022-09-09T10:44:15;2.77;;;1.80;;
2840;SDS011;53423;49.224;12.074;2022-09-09T10:46:57;1.60;;;1.50;;
2840;SDS011;53423;49.224;12.074;2022-09-09T10:50:00;2.93;;;1.53;;
2840;SDS011;53423;49.224;12.074;2022-09-09T10:52:42;1.03;;;1.03;;
2840;SDS011;53423;49.224;12.074;2022-09-09T10:55:20;1.10;;;0.97;;
2840;SDS011;53423;49.224;12.074;2022-09-09T10:57:55;1.60;;;1.10;;
2840;SDS011;53423;49.224;12.074;2022-09-09T11:00:27;1.88;;;1.08;;
2840;SDS011;53423;49.224;12.074;2022-09-09T11:03:05;1.85;;;0.90;;
2840;SDS011;53423;49.224;12.074;2022-09-09T11:05:35;2.67;;;1.00;;
2840;SDS011;53423;49.224;12.074;2022-09-09T11:08:09;2.05;;;0.90;;
2840;SDS011;53423;49.224;12.074;2022-09-09T11:10:44;1.65;;;1.10;;
2840;SDS011;53423;49.224;12.074;2022-09-09T11:13:20;3.00;;;0.90;;
2840;SDS011;53423;49.224;12.074;2022-09-09T11:15:53;1.15;;;1.00;;
2840;SDS011;53423;49.224;12.074;2022-09-09T11:18:27;1.38;;;0.90;;
2840;SDS011;53423;49.224;12.074;2022-09-09T11:20:59;1.65;;;1.08;;
2840;SDS011;53423;49.224;12.074;2022-09-09T11:23:32;3.30;;;1.10;;
2840;SDS011;53423;49.224;12.074;2022-09-09T11:26:10;1.33;;;1.00;;
2840;SDS011;53423;49.224;12.074;2022-09-09T11:28:46;2.15;;;0.70;;
2840;SDS011;53423;49.224;12.074;2022-09-09T11:31:38;1.88;;;1.15;;
2840;SDS011;53423;49.224;12.074;2022-09-09T11:34:16;1.35;;;1.00;;
2840;SDS011;53423;49.224;12.074;2022-09-09T11:36:56;1.40;;;1.25;;
2840;SDS011;53423;49.224;12.074;2022-09-09T11:39:38;3.00;;;1.25;;
2840;SDS011;53423;49.224;12.074;2022-09-09T11:42:23;2.38;;;1.20;;
2840;SDS011;53423;49.224;12.074;2022-09-09T11:44:52;2.50;;;1.38;;
2840;SDS011;53423;49.224;12.074;2022-09-09T11:47:22;2.60;;;1.17;;
2840;SDS011;53423;49.224;12.074;2022-09-09T11:50:07;2.33;;;1.40;;
2840;SDS011;53423;49.224;12.074;2022-09-09T11:53:03;2.67;;;1.38;;
2840;SDS011;53423;49.224;12.074;2022-09-09T11:56:05;3.88;;;1.80;;
2840;SDS011;53423;49.224;12.074;2022-09-09T11:58:38;2.20;;;1.20;;
2840;SDS011;53423;49.224;12.074;2022-09-09T12:07:23;2.85;;;1.25;;
2840;SDS011;53423;49.224;12.074;2022-09-09T12:09:59;1.60;;;1.50;;
2840;SDS011;53423;49.224;12.074;2022-09-09T12:12:31;2.05;;;1.50;;
2840;SDS011;53423;49.224;12.074;2022-09-09T12:15:20;1.92;;;1.33;;
2840;SDS011;53423;49.224;12.074;2022-09-09T12:17:52;1.45;;;1.02;;
2840;SDS011;53423;49.224;12.074;2022-09-09T12:20:31;1.65;;;1.13;;
2840;SDS011;53423;49.224;12.074;2022-09-09T12:23:18;1.20;;;1.10;;
2840;SDS011;53423;49.224;12.074;2022-09-09T12:25:58;1.33;;;0.80;;
2840;SDS011;53423;49.224;12.074;2022-09-09T12:28:39;2.40;;;0.90;;
2840;SDS011;53423;49.224;12.074;2022-09-09T12:31:14;1.27;;;1.17;;
2840;SDS011;53423;49.224;12.074;2022-09-09T12:33:48;1.27;;;1.08;;
2840;SDS011;53423;49.224;12.074;2022-09-09T12:36:16;1.70;;;1.27;;
2840;SDS011;53423;49.224;12.074;2022-09-09T12:38:47;1.17;;;0.90;;
2840;SDS011;53423;49.224;12.074;2022-09-09T12:41:18;2.03;;;0.97;;
2840;SDS011;53423;49.224;12.074;2022-09-09T12:43:48;1.83;;;1.23;;
2840;SDS011;53423;49.224;12.074;2022-09-09T12:46:22;1.38;;;1.27;;
2840;SDS011;53423;49.224;12.074;2022-09-09T12:49:00;1.75;;;1.30;;
2840;SDS011;53423;49.224;12.074;2022-09-09T12:51:29;1.80;;;1.40;;
2840;SDS011;53423;49.224;12.074;2022-09-09T12:53:58;2.20;;;1.55;;
2840;SDS011;53423;49.224;12.074;2022-09-09T12:56:28;3.60;;;1.80;;
2840;SDS011;53423;49.224;12.074;2022-09-09T12:58:58;2.53;;;1.50;;
2840;SDS011;53423;49.224;12.074;2022-09-09T13:01:29;1.73;;;1.42;;
2840;SDS011;53423;49.224;12.074;2022-09-09T13:03:59;2.30;;;1.60;;
2840;SDS011;53423;49.224;12.074;2022-09-09T13:06:27;2.85;;;1.67;;
2840;SDS011;53423;49.224;12.074;2022-09-09T13:08:57;2.70;;;1.50;;
2840;SDS011;53423;49.224;12.074;2022-09-09T13:11:27;2.58;;;1.73;;
2840;SDS011;53423;49.224;12.074;2022-09-09T13:13:58;1.88;;;1.42;;
2840;SDS011;53423;49.224;12.074;2022-09-09T13:16:27;2.50;;;1.90;;
2840;SDS011;53423;49.224;12.074;2022-09-09T13:19:06;3.33;;;1.70;;
2840;SDS011;53423;49.224;12.074;2022-09-09T13:21:36;2.10;;;1.70;;
2840;SDS011;53423;49.224;12.074;2022-09-09T13:24:06;1.70;;;1.60;;
2840;SDS011;53423;49.224;12.074;2022-09-09T13:26:54;2.35;;;1.40;;
2840;SDS011;53423;49.224;12.074;2022-09-09T13:29:23;3.77;;;1.47;;
2840;SDS011;53423;49.224;12.074;2022-09-09T13:31:53;3.20;;;2.10;;
2840;SDS011;53423;49.224;12.074;2022-09-09T13:34:32;2.17;;;1.60;;
2840;SDS011;53423;49.224;12.074;2022-09-09T13:37:02;3.15;;;1.90;;
2840;SDS011;53423;49.224;12.074;2022-09-09T13:39:32;1.73;;;1.50;;
2840;SDS011;53423;49.224;12.074;2022-09-09T13:42:03;4.33;;;1.77;;
2840;SDS011;53423;49.224;12.074;2022-09-09T13:44:34;2.93;;;1.73;;
2840;SDS011;53423;49.224;12.074;2022-09-09T13:47:15;1.87;;;1.70;;
2840;SDS011;53423;49.224;12.074;2022-09-09T13:49:46;2.40;;;1.83;;
2840;SDS011;53423;49.224;12.074;2022-09-09T13:52:15;2.77;;;1.60;;
2840;SDS011;53423;49.224;12.074;2022-09-09T13:54:46;1.83;;;1.70;;
2840;SDS011;53423;49.224;12.074;2022-09-09T13:57:16;3.47;;;1.80;;
2840;SDS011;53423;49.224;12.074;2022-09-09T13:59:45;1.98;;;1.55;;
2840;SDS011;53423;49.224;12.074;2022-09-09T14:02:32;2.03;;;1.67;;
2840;SDS011;53423;49.224;12.074;2022-09-09T14:05:01;3.33;;;1.77;;
2840;SDS011;53423;49.224;12.074;2022-09-09T14:07:29;1.63;;;1.53;;
2840;SDS011;53423;49.224;12.074;2022-09-09T14:09:58;2.03;;;1.67;;
2840;SDS011;53423;49.224;12.074;2022-09-09T14:12:26;2.63;;;2.00;;
2840;SDS011;53423;49.224;12.074;2022-09-09T14:14:54;2.43;;;2.00;;
2840;SDS011;53423;49.224;12.074;2022-09-09T14:17:22;2.90;;;1.83;;
2840;SDS011;53423;49.224;12.074;2022-09-09T14:19:52;2.50;;;1.57;;
2840;SDS011;53423;49.224;12.074;2022-09-09T14:22:21;3.57;;;1.70;;
2840;SDS011;53423;49.224;12.074;2022-09-09T14:24:49;3.17;;;1.97;;
2840;SDS011;53423;49.224;12.074;2022-09-09T14:27:17;2.30;;;2.00;;
2840;SDS011;53423;49.224;12.074;2022-09-09T14:29:46;4.18;;;2.00;;
2840;SDS011;53423;49.224;12.074;2022-09-09T14:32:14;2.43;;;1.67;;
2840;SDS011;53423;49.224;12.074;2022-09-09T14:34:41;2.77;;;2.03;;
2840;SDS011;53423;49.224;12.074;2022-09-09T14:37:11;1.93;;;1.77;;
2840;SDS011;53423;49.224;12.074;2022-09-09T14:39:39;1.90;;;1.67;;
2840;SDS011;53423;49.224;12.074;2022-09-09T14:42:07;3.80;;;1.97;;
2840;SDS011;53423;49.224;12.074;2022-09-09T14:44:37;2.23;;;1.73;;
2840;SDS011;53423;49.224;12.074;2022-09-09T14:47:05;2.47;;;1.60;;
2840;SDS011;53423;49.224;12.074;2022-09-09T14:49:34;4.10;;;1.90;;
2840;SDS011;53423;49.224;12.074;2022-09-09T14:52:02;3.43;;;1.97;;
2840;SDS011;53423;49.224;12.074;2022-09-09T14:54:32;3.13;;;2.00;;
2840;SDS011;53423;49.224;12.074;2022-09-09T14:57:00;1.73;;;1.40;;
2840;SDS011;53423;49.224;12.074;2022-09-09T14:59:28;3.03;;;1.40;;
2840;SDS011;53423;49.224;12.074;2022-09-09T15:01:56;1.80;;;1.20;;
2840;SDS011;53423;49.224;12.074;2022-09-09T15:04:24;2.17;;;1.30;;
2840;SDS011;53423;49.224;12.074;2022-09-09T15:06:53;3.17;;;1.70;;
2840;SDS011;53423;49.224;12.074;2022-09-09T15:09:21;2.37;;;1.73;;
2840;SDS011;53423;49.224;12.074;2022-09-09T15:11:50;2.63;;;1.57;;
2840;SDS011;53423;49.224;12.074;2022-09-09T15:14:18;1.33;;;1.23;;
2840;SDS011;53423;49.224;12.074;2022-09-09T15:16:50;3.07;;;1.57;;
2840;SDS011;53423;49.224;12.074;2022-09-09T15:19:18;3.13;;;1.50;;
2840;SDS011;53423;49.224;12.074;2022-09-09T15:21:46;1.47;;;1.03;;